Walnut Grove, Illinois
Current Conditions -  °F | °C
As of 10:55 PM on Monday 20 Oct 2014 (Local Time) from KMQB Reporting Station
Clear Clear  
Wind Chill: 41°   Ceiling: Unl
Heat Index: 45°   Visibility: 10mi
Dew Point: 42°   Wind: 7mph
Humidity: 88%   Direction: 310°NW
Pressure: 30.03"   Gusts: NA
Location:  40.6073°N, 90.5029°W
Report Text: KMQB 210355Z AUTO 31006KT 10SM CLR 07/05 A3003 RMK AO2 T00720053
Loading
Personal Weather Stations






























Interactive Weather Map
Tropical Storm Tracking
New forecast layout! Learn more

10-Day Weather Forecast

Advertisements
Track Severe Weather on mobile